Quonochontaug, RI

7:00 PM EDT on April 27, 2017 (GMT -0400)
West Beach Quonnie | | Change Station
Active Advisory: Dense Fog Advisory

Elev 35 ft 41.33 °N, 71.71 °W | Updated 13 minutes ago

Overcast
Overcast
50.4 °F
Feels Like 50.4 °F
N
1.0
Wind Variable Wind from South
Gusts 2.0 mph

Today
High -- | Low -- °F
--% Chance of Precip.
Yesterday
High -- | Low -- °F
Precip. -- in
Pressure 29.93 in
Visibility 7.0 miles
Clouds Overcast 300 ft
Dew Point 50 °F
Humidity 99%
Rainfall 0.00 in
Snow Depth Not available.
5:49 AM 7:40 PM
Waxing Crescent, 3% visible
METAR KWST 272253Z AUTO 17006KT 7SM OVC003 12/11 A2993 RMK AO2 SLP135 T01220111
Pressure 29.93 in
Visibility 7.0 miles
Clouds Overcast 300 ft
Dew Point 50 °F
Humidity 99%
Rainfall 0.00 in
Snow Depth Not available.
5:49 AM 7:40 PM
Waxing Crescent, 3% visible
METAR KWST 272253Z AUTO 17006KT 7SM OVC003 12/11 A2993 RMK AO2 SLP135 T01220111

Get Your Daily Forecast Email!

Thanks for signing up!

Be on the lookout for a verification email in your inbox.

You'll start receiving severe weather alerts in your inbox..

×

10-Day Weather Forecast

Almanac

Astronomy

Apr. 27, 2017 Rise Set
Actual Time
Civil Twilight
Nautical Twilight
Astronomical Twilight
Moon
Length of Visible Light
Length of Day
Tomorrow will be .
, % of the Moon is Illuminated

Today's Extremes

State Highs State Lows

Community

WunderPhotos

WunderBlog® & News

Nearby

Air Quality

  Air Quality AQ Index Pollutant
Not available.

Snow Depth

Station Depth Elevation

Earthquake Activity

City Distance Mag. Time & Date
Minimum magnitude displayed is 2.5.

Coastal Water Temperatures

Place Temperature

Stations

Nearby Weather Stations

Station Location Temp. Windchill Dew Point Humidity Wind Precip. Elev Updated Type
                   

Watches & Warnings

Dense Fog Advisory
Issued: 3:52 PM EDT Apr. 27, 2017 – National Weather Service

... Dense fog advisory in effect from 8 PM this evening to 5 am
EDT Friday...

The National Weather Service in Taunton has issued a dense fog
advisory, which is in effect from 8 PM this evening to 5 am EDT
Friday.

* Location... south coastal Rhode Island and Massachusetts.
Including Cape Cod and the islands

* visibilities... one quarter mile or less at times.

* Timing... this evening and overnight.

* Impacts... visibility in fog may change rapidly and drop to below
a quarter mile at times. Motorists are urged to use caution and
allow for extra travel time and distance between vehicles.

Precautionary/preparedness actions...

A dense fog advisory means visibilities will frequently be
reduced to less than one quarter mile, for at least 3 hours. If
driving, slow down, use your headlights, and leave plenty of
distance ahead of you.



For the latest updates... please visit our webpage at
www.Weather.Gov/Boston

You can follow US on facebook at